Time;durP1;ratioP1;P1;durP2;ratioP2;P2;SDS_P1;SDS_P2;PMS_P1;PMS_P2;Temp;Humidity;BMP_temperature;BMP_pressure;BME280_temperature;BME280_humidity;BME280_pressure;Samples;Min_cycle;Max_cycle;Signal;HPM_P1;HPM_P2
2022/04/23 00:02:18;;;;;;;10.25;9.15;;;11.30;99.00;;;;;;5027221;28;20049;-69
2022/04/23 00:04:44;;;;;;;11.50;9.30;;;11.30;99.20;;;;;;5023234;28;20056;-69
2022/04/23 00:07:09;;;;;;;10.35;9.35;;;11.30;99.50;;;;;;5026358;28;20041;-70
2022/04/23 00:09:35;;;;;;;9.70;8.68;;;11.30;99.90;;;;;;5024238;28;20054;-70
2022/04/23 00:12:01;;;;;;;11.65;9.65;;;11.20;99.90;;;;;;5027544;28;20116;-70
2022/04/23 00:14:27;;;;;;;12.27;10.57;;;11.20;99.70;;;;;;5025948;28;20041;-70
2022/04/23 00:16:53;;;;;;;10.80;9.70;;;11.20;99.90;;;;;;5024439;28;20088;-70
2022/04/23 00:19:20;;;;;;;10.75;9.57;;;11.10;99.80;;;;;;5024803;28;20069;-71
2022/04/23 00:21:46;;;;;;;12.18;10.98;;;11.20;99.80;;;;;;5025477;28;20040;-70
2022/04/23 00:24:12;;;;;;;13.63;10.98;;;11.10;99.90;;;;;;5026722;28;20038;-70
2022/04/23 00:26:39;;;;;;;12.30;10.15;;;11.10;99.90;;;;;;5023373;28;20041;-70
2022/04/23 00:29:05;;;;;;;11.27;10.02;;;11.10;99.90;;;;;;5018452;28;20076;-70
2022/04/23 00:31:31;;;;;;;12.50;10.75;;;11.00;99.90;;;;;;5028171;28;20115;-70
2022/04/23 00:33:57;;;;;;;10.75;9.65;;;11.00;99.90;;;;;;5022883;28;20041;-70
2022/04/23 00:36:23;;;;;;;11.55;10.35;;;11.00;99.90;;;;;;5025463;28;20041;-70
2022/04/23 00:38:51;;;;;;;10.90;9.75;;;10.90;99.90;;;;;;5008430;28;20115;-70
2022/04/23 00:44:15;;;;;;;12.13;10.65;;;10.90;99.90;;;;;;5002876;28;20132;-70
2022/04/23 00:46:42;;;;;;;12.85;10.55;;;10.80;99.90;;;;;;5027284;28;20094;-70
2022/04/23 00:49:08;;;;;;;11.45;10.32;;;10.80;99.90;;;;;;5023791;28;20132;-70
2022/04/23 00:51:35;;;;;;;13.02;11.02;;;10.80;99.90;;;;;;5024939;28;20128;-70
2022/04/23 00:54:09;;;;;;;12.85;11.50;;;10.70;99.90;;;;;;5024039;28;20052;-70
2022/04/23 00:56:35;;;;;;;;;;;10.70;99.90;;;;;;5007951;28;20057;-70
2022/04/23 00:59:12;;;;;;;14.30;10.77;;;10.70;99.90;;;;;;5024596;28;19925;-70
2022/04/23 01:01:46;;;;;;;12.32;11.02;;;10.60;99.90;;;;;;5022603;28;20049;-70
2022/04/23 01:04:13;;;;;;;12.20;10.63;;;10.60;99.90;;;;;;5024620;28;20034;-70
2022/04/23 01:06:38;;;;;;;12.82;11.43;;;10.60;99.90;;;;;;5022349;28;20586;-70
2022/04/23 01:09:08;;;;;;;12.50;11.20;;;10.60;99.90;;;;;;5025042;28;20120;-70
2022/04/23 01:11:38;;;;;;;12.25;10.95;;;10.60;99.90;;;;;;5024525;28;20049;-69
2022/04/23 01:14:04;;;;;;;13.13;11.15;;;10.50;99.90;;;;;;5024214;28;20037;-69
2022/04/23 01:16:30;;;;;;;15.43;11.90;;;10.50;99.90;;;;;;5026460;28;20535;-69
2022/04/23 01:18:56;;;;;;;13.15;11.70;;;10.40;99.90;;;;;;5019874;28;20690;-69
2022/04/23 01:21:21;;;;;;;17.80;11.85;;;10.40;99.90;;;;;;5025581;28;20045;-69
2022/04/23 01:23:49;;;;;;;14.05;12.55;;;10.40;99.90;;;;;;5026097;28;20421;-69
2022/04/23 01:26:24;;;;;;;13.57;12.25;;;10.30;99.90;;;;;;5024990;28;20037;-69
2022/04/23 01:28:50;;;;;;;13.60;11.98;;;10.30;99.90;;;;;;5024447;28;20033;-69
2022/04/23 01:31:15;;;;;;;13.18;11.90;;;10.30;99.90;;;;;;5023602;28;20099;-70
2022/04/23 01:33:41;;;;;;;13.68;12.27;;;10.30;99.90;;;;;;5023522;28;20033;-70
2022/04/23 01:36:07;;;;;;;14.35;12.18;;;10.30;99.90;;;;;;5023036;28;20374;-70
2022/04/23 01:38:32;;;;;;;14.88;13.23;;;10.30;99.90;;;;;;5023143;28;20038;-70
2022/04/23 01:40:58;;;;;;;13.85;12.32;;;10.30;99.90;;;;;;5021527;28;20046;-70
2022/04/23 01:43:24;;;;;;;14.18;12.77;;;10.20;99.90;;;;;;5007195;28;20056;-70
2022/04/23 01:45:49;;;;;;;14.15;12.63;;;10.10;99.90;;;;;;5025928;28;20045;-70
2022/04/23 01:48:15;;;;;;;13.45;11.63;;;10.20;99.90;;;;;;5020000;28;20413;-70
2022/04/23 01:50:41;;;;;;;12.60;11.35;;;10.20;99.90;;;;;;5023167;28;20095;-70
2022/04/23 01:53:06;;;;;;;13.60;12.20;;;10.20;99.90;;;;;;5022349;28;20049;-70
2022/04/23 01:55:32;;;;;;;13.38;11.85;;;10.10;99.90;;;;;;5023236;28;20160;-70
2022/04/23 01:57:58;;;;;;;15.38;11.60;;;10.20;99.90;;;;;;5023725;28;20045;-70
2022/04/23 02:00:24;;;;;;;13.10;11.75;;;10.10;99.90;;;;;;5025403;28;20041;-68
2022/04/23 02:02:50;;;;;;;12.55;11.10;;;10.10;99.90;;;;;;5022425;28;20045;-69
2022/04/23 02:05:16;;;;;;;14.63;12.30;;;10.10;99.90;;;;;;5025264;28;20041;-69
2022/04/23 02:07:43;;;;;;;12.90;11.60;;;10.10;99.90;;;;;;5022572;28;20029;-70
2022/04/23 02:10:12;;;;;;;13.82;10.93;;;10.10;99.90;;;;;;5024126;28;20056;-69
2022/04/23 02:12:38;;;;;;;12.38;11.10;;;10.10;99.90;;;;;;5041020;28;20060;-70
2022/04/23 02:15:14;;;;;;;9.93;8.90;;;10.10;99.90;;;;;;5028103;28;20393;-70
2022/04/23 02:17:42;;;;;;;10.57;9.55;;;10.00;99.90;;;;;;5021547;28;20045;-69
2022/04/23 02:20:10;;;;;;;12.50;9.90;;;10.00;99.90;;;;;;5026061;28;20049;-69
2022/04/23 02:22:36;;;;;;;12.18;9.38;;;10.00;99.90;;;;;;5023963;28;20072;-69
2022/04/23 02:25:05;;;;;;;10.75;9.65;;;9.90;99.90;;;;;;5023796;28;20077;-69
2022/04/23 02:27:43;;;;;;;10.80;9.45;;;9.90;99.90;;;;;;5021966;28;20481;-69
2022/04/23 02:30:09;;;;;;;10.73;9.63;;;9.90;99.90;;;;;;5029549;28;20137;-69
2022/04/23 02:32:35;;;;;;;11.95;9.52;;;9.90;99.90;;;;;;5020025;28;20509;-70
2022/04/23 02:35:01;;;;;;;11.73;10.45;;;9.90;99.90;;;;;;5019471;28;20042;-69
2022/04/23 02:37:27;;;;;;;14.13;9.68;;;9.90;99.90;;;;;;5021954;28;20033;-69
2022/04/23 02:39:53;;;;;;;12.10;9.57;;;9.90;99.90;;;;;;5022549;28;20057;-69
2022/04/23 02:42:19;;;;;;;12.27;10.68;;;9.90;99.90;;;;;;5021499;28;20049;-69
2022/04/23 02:44:45;;;;;;;11.40;9.95;;;9.90;99.90;;;;;;5024244;28;20124;-68
2022/04/23 02:47:11;;;;;;;12.98;9.90;;;9.90;99.90;;;;;;5022251;28;20171;-68
2022/04/23 02:49:36;;;;;;;12.88;9.60;;;9.90;99.90;;;;;;5007998;28;20046;-68
2022/04/23 02:52:03;;;;;;;11.30;10.07;;;9.80;99.90;;;;;;5026818;28;20563;-68
2022/04/23 02:54:28;;;;;;;11.93;9.93;;;9.80;99.90;;;;;;5029160;28;20076;-68
2022/04/23 02:56:55;;;;;;;13.75;10.43;;;9.80;99.90;;;;;;5028921;28;20119;-68
2022/04/23 02:59:21;;;;;;;10.73;9.63;;;9.80;99.90;;;;;;5030471;28;20050;-68
2022/04/23 03:01:47;;;;;;;11.05;9.90;;;9.70;99.90;;;;;;5031589;28;20075;-68
2022/04/23 03:04:15;;;;;;;11.15;9.45;;;9.70;99.90;;;;;;5031341;28;20045;-68
2022/04/23 03:06:40;;;;;;;12.20;10.55;;;9.70;99.90;;;;;;5031166;28;20088;-68
2022/04/23 03:09:06;;;;;;;11.85;10.63;;;9.70;99.90;;;;;;5031893;28;20038;-68
2022/04/23 03:11:32;;;;;;;12.77;10.65;;;9.60;99.90;;;;;;5031987;28;20052;-68
2022/04/23 03:13:58;;;;;;;11.48;9.93;;;9.60;99.90;;;;;;5032581;28;20037;-68
2022/04/23 03:16:27;;;;;;;13.43;10.60;;;9.60;99.90;;;;;;5033455;28;20049;-68
2022/04/23 03:18:53;;;;;;;12.40;10.40;;;9.60;99.90;;;;;;5031287;28;20131;-68
2022/04/23 03:21:19;;;;;;;15.77;11.40;;;9.60;99.90;;;;;;5031962;28;20048;-68
2022/04/23 03:23:45;;;;;;;14.32;10.35;;;9.50;99.90;;;;;;5030861;28;20053;-68
2022/04/23 03:26:10;;;;;;;11.07;9.90;;;9.60;99.90;;;;;;5031203;28;20041;-68
2022/04/23 03:28:36;;;;;;;14.30;10.93;;;9.50;99.90;;;;;;5031235;28;20042;-69
2022/04/23 03:31:05;;;;;;;13.32;10.52;;;9.50;99.90;;;;;;5031508;28;20061;-69
2022/04/23 03:33:31;;;;;;;13.55;10.35;;;9.50;99.90;;;;;;5030662;28;20132;-69
2022/04/23 03:35:57;;;;;;;11.80;10.57;;;9.50;99.90;;;;;;5029300;28;20482;-69
2022/04/23 03:38:22;;;;;;;11.60;9.60;;;9.50;99.90;;;;;;5031330;28;20060;-69
2022/04/23 03:40:53;;;;;;;13.98;10.85;;;9.40;99.90;;;;;;5032210;28;20069;-68
2022/04/23 03:43:20;;;;;;;14.02;11.20;;;9.40;99.90;;;;;;5030485;28;20037;-69
2022/04/23 03:45:47;;;;;;;10.93;9.82;;;9.40;99.90;;;;;;5030184;28;20079;-69
2022/04/23 03:48:14;;;;;;;12.07;10.50;;;9.40;99.90;;;;;;5029735;28;20025;-68
2022/04/23 03:50:42;;;;;;;16.00;10.50;;;9.40;99.90;;;;;;5031628;28;20693;-69
2022/04/23 03:53:08;;;;;;;12.90;10.23;;;9.30;99.90;;;;;;5028274;28;20559;-69
2022/04/23 03:55:35;;;;;;;12.30;10.95;;;9.30;99.90;;;;;;5030548;28;20477;-69
2022/04/23 03:58:01;;;;;;;11.88;10.10;;;9.30;99.90;;;;;;5031721;28;20049;-69
2022/04/23 04:00:28;;;;;;;13.40;10.25;;;9.30;99.90;;;;;;5030518;28;20041;-69
2022/04/23 04:02:55;;;;;;;13.23;10.90;;;9.30;99.90;;;;;;5029217;28;20049;-69
2022/04/23 04:05:22;;;;;;;10.80;9.15;;;9.20;99.90;;;;;;5030449;28;20527;-68
2022/04/23 04:07:48;;;;;;;12.10;10.07;;;9.20;99.90;;;;;;5030415;28;20041;-70
2022/04/23 04:10:16;;;;;;;14.95;10.23;;;9.20;99.90;;;;;;5011271;28;20158;-69
2022/04/23 04:12:42;;;;;;;11.40;10.30;;;9.20;99.90;;;;;;5029836;28;20080;-69
2022/04/23 04:15:12;;;;;;;11.57;10.32;;;9.10;99.90;;;;;;5027609;28;20471;-68
2022/04/23 04:17:39;;;;;;;11.05;9.68;;;9.10;99.90;;;;;;5030169;28;20260;-69
2022/04/23 04:20:13;;;;;;;11.27;10.05;;;9.00;99.90;;;;;;5030005;28;20166;-69
2022/04/23 04:22:40;;;;;;;10.90;9.52;;;9.10;99.90;;;;;;5030388;28;20037;-69
2022/04/23 04:25:07;;;;;;;14.27;9.80;;;9.00;99.90;;;;;;5026753;28;20381;-68
2022/04/23 04:27:34;;;;;;;11.88;9.70;;;9.00;99.90;;;;;;5028858;28;20053;-68
2022/04/23 04:30:02;;;;;;;11.77;10.07;;;9.00;99.90;;;;;;5013311;28;20127;-68
2022/04/23 04:32:27;;;;;;;11.38;10.27;;;9.00;99.90;;;;;;5028832;28;20060;-69
2022/04/23 04:34:53;;;;;;;11.75;9.68;;;9.00;99.90;;;;;;5030707;28;20041;-69
2022/04/23 04:37:18;;;;;;;10.38;9.32;;;9.00;99.90;;;;;;5028610;28;20075;-68
2022/04/23 04:39:44;;;;;;;12.32;10.00;;;9.00;99.90;;;;;;5027366;28;20276;-67
2022/04/23 04:42:11;;;;;;;11.02;9.88;;;9.00;99.90;;;;;;5030334;28;20041;-68
2022/04/23 04:44:37;;;;;;;13.35;10.10;;;9.00;99.90;;;;;;5032696;28;20533;-67
2022/04/23 04:47:04;;;;;;;11.95;9.77;;;9.00;99.90;;;;;;5031303;28;20115;-68
2022/04/23 04:49:30;;;;;;;14.63;9.77;;;9.00;99.90;;;;;;5029644;28;20509;-69
2022/04/23 04:51:56;;;;;;;11.50;10.18;;;9.00;99.90;;;;;;5029862;28;20136;-68
2022/04/23 04:54:22;;;;;;;11.48;9.50;;;9.00;99.90;;;;;;5031308;28;20124;-68
2022/04/23 04:56:52;;;;;;;10.63;9.52;;;9.00;99.90;;;;;;5028804;28;20144;-69
2022/04/23 04:59:20;;;;;;;10.93;9.73;;;9.00;99.90;;;;;;5029074;28;20067;-68
2022/04/23 05:01:46;;;;;;;10.00;8.57;;;9.00;99.90;;;;;;5030140;28;20038;-69
2022/04/23 05:04:12;;;;;;;11.80;10.30;;;8.90;99.90;;;;;;5030849;28;20493;-69
2022/04/23 05:06:38;;;;;;;11.50;9.93;;;9.00;99.90;;;;;;5031324;28;20049;-69
2022/04/23 05:09:04;;;;;;;11.15;10.05;;;9.00;99.90;;;;;;5029867;28;20053;-67
2022/04/23 05:11:30;;;;;;;12.68;9.93;;;9.00;99.90;;;;;;5029294;28;20037;-68
2022/04/23 05:13:55;;;;;;;10.60;9.60;;;9.10;99.90;;;;;;5028807;28;20116;-68
2022/04/23 05:16:21;;;;;;;11.35;9.18;;;9.20;99.90;;;;;;5027715;28;20404;-68
2022/04/23 05:18:47;;;;;;;10.13;9.13;;;9.20;99.90;;;;;;5030040;28;20517;-68
2022/04/23 05:21:13;;;;;;;11.35;10.25;;;9.20;99.90;;;;;;5028818;28;20135;-68
2022/04/23 05:23:38;;;;;;;10.70;8.50;;;9.30;99.90;;;;;;5029044;28;20079;-67
2022/04/23 05:26:04;;;;;;;9.85;8.85;;;9.40;99.90;;;;;;5030374;28;20033;-69
2022/04/23 05:28:30;;;;;;;9.80;8.75;;;9.40;99.90;;;;;;5029055;28;20041;-68
2022/04/23 05:30:56;;;;;;;10.90;9.18;;;9.50;99.90;;;;;;5029236;28;20056;-68
2022/04/23 05:33:22;;;;;;;9.98;8.98;;;9.50;99.90;;;;;;5029610;28;20045;-68
2022/04/23 05:35:48;;;;;;;10.60;9.35;;;9.60;99.90;;;;;;5029090;28;20053;-68
2022/04/23 05:38:13;;;;;;;10.02;8.55;;;9.80;99.90;;;;;;5029911;28;20033;-68
2022/04/23 05:40:39;;;;;;;8.65;7.85;;;10.00;99.90;;;;;;5029991;28;20042;-68
2022/04/23 05:43:05;;;;;;;9.30;8.30;;;10.10;99.90;;;;;;5028882;28;20050;-67
2022/04/23 05:45:31;;;;;;;9.23;8.35;;;10.30;99.90;;;;;;5030003;28;20025;-68
2022/04/23 05:47:57;;;;;;;9.20;8.23;;;10.40;99.90;;;;;;5026936;28;20554;-68
2022/04/23 05:50:23;;;;;;;9.55;8.65;;;10.40;99.90;;;;;;5030761;28;20041;-68
2022/04/23 05:52:49;;;;;;;9.52;8.63;;;10.50;99.90;;;;;;5029921;28;20050;-69
2022/04/23 05:55:15;;;;;;;9.90;8.77;;;10.40;99.90;;;;;;5030393;28;20461;-69
2022/04/23 05:57:41;;;;;;;9.23;8.32;;;10.40;99.90;;;;;;5027101;28;20041;-68
2022/04/23 06:00:09;;;;;;;10.07;9.07;;;10.40;99.90;;;;;;5026769;28;20425;-68
2022/04/23 06:02:35;;;;;;;9.25;7.95;;;10.40;99.60;;;;;;5025127;28;20108;-69
2022/04/23 06:05:01;;;;;;;9.23;8.27;;;10.40;99.50;;;;;;5010476;28;20053;-69
2022/04/23 06:07:27;;;;;;;8.10;7.35;;;10.40;99.10;;;;;;5028300;28;20077;-68
2022/04/23 06:09:53;;;;;;;10.38;9.13;;;10.40;99.40;;;;;;5027496;28;20065;-69
2022/04/23 06:12:18;;;;;;;10.68;8.75;;;10.40;99.40;;;;;;5027868;28;20504;-69
2022/04/23 06:14:44;;;;;;;9.88;8.82;;;10.50;99.20;;;;;;5028586;28;20362;-69
2022/04/23 06:17:12;;;;;;;10.15;9.20;;;10.60;99.00;;;;;;5027531;28;20069;-69
2022/04/23 06:19:38;;;;;;;10.20;9.13;;;10.60;98.80;;;;;;5026976;28;20088;-69
2022/04/23 06:22:05;;;;;;;10.82;9.00;;;10.70;98.80;;;;;;5027869;28;20041;-69
2022/04/23 06:24:32;;;;;;;9.88;8.95;;;10.70;98.50;;;;;;5011665;28;20153;-69
2022/04/23 06:26:58;;;;;;;10.77;9.15;;;10.80;97.90;;;;;;5025502;28;20059;-69
2022/04/23 06:29:24;;;;;;;12.43;9.77;;;10.80;97.50;;;;;;5027938;28;20049;-68
2022/04/23 06:31:50;;;;;;;11.05;9.60;;;10.80;97.90;;;;;;5030413;28;20050;-69
2022/04/23 06:34:15;;;;;;;10.80;9.60;;;10.90;97.50;;;;;;5030701;28;20072;-69
2022/04/23 06:36:42;;;;;;;10.13;9.13;;;10.90;97.20;;;;;;5031393;28;20103;-68
2022/04/23 06:39:08;;;;;;;11.30;10.20;;;11.00;96.70;;;;;;5033038;28;20041;-69
2022/04/23 06:41:34;;;;;;;11.25;10.13;;;11.10;96.40;;;;;;5031261;28;20046;-68
2022/04/23 06:44:00;;;;;;;9.93;8.88;;;11.10;96.10;;;;;;5031733;28;20041;-68
2022/04/23 06:46:26;;;;;;;9.45;7.88;;;11.20;95.90;;;;;;5030811;28;20026;-68
2022/04/23 06:48:51;;;;;;;11.23;9.82;;;11.30;95.80;;;;;;5013485;28;20115;-69
2022/04/23 06:51:17;;;;;;;10.38;9.27;;;11.30;95.20;;;;;;5031194;28;20058;-69
2022/04/23 06:53:43;;;;;;;10.98;8.80;;;11.40;95.30;;;;;;5032611;28;20060;-68
2022/04/23 06:56:09;;;;;;;12.43;9.93;;;11.50;95.10;;;;;;5033571;28;20053;-69
2022/04/23 06:58:35;;;;;;;10.75;9.70;;;11.70;94.80;;;;;;5032571;28;20045;-69
2022/04/23 07:01:01;;;;;;;10.55;9.55;;;11.70;93.60;;;;;;5032448;28;20508;-68
2022/04/23 07:03:27;;;;;;;10.93;9.82;;;11.80;93.60;;;;;;5032628;28;20049;-68
2022/04/23 07:05:53;;;;;;;10.20;9.07;;;11.90;93.50;;;;;;5032903;28;20037;-68
2022/04/23 07:08:19;;;;;;;10.55;9.60;;;12.10;93.40;;;;;;5032407;28;20317;-69
2022/04/23 07:10:45;;;;;;;13.57;9.45;;;12.30;92.90;;;;;;5032582;28;20103;-68
2022/04/23 07:13:14;;;;;;;11.35;10.15;;;12.10;92.80;;;;;;5034042;28;20049;-69
2022/04/23 07:15:40;;;;;;;9.77;8.85;;;12.30;92.50;;;;;;5030033;28;20057;-69
2022/04/23 07:18:06;;;;;;;10.82;9.38;;;12.50;92.70;;;;;;5013621;28;20409;-67
2022/04/23 07:20:32;;;;;;;9.60;8.63;;;12.60;91.80;;;;;;5032241;28;20489;-68
2022/04/23 07:25:42;;;;;;;10.80;9.77;;;12.70;90.60;;;;;;5028458;28;20055;-68
2022/04/23 07:28:08;;;;;;;10.93;9.82;;;12.80;91.00;;;;;;5031016;28;20132;-68
2022/04/23 07:30:35;;;;;;;10.27;9.27;;;13.10;90.30;;;;;;5032229;28;20053;-67
2022/04/23 07:33:00;;;;;;;11.50;10.45;;;13.20;89.20;;;;;;5030527;28;20045;-68
2022/04/23 07:38:18;;;;;;;10.43;9.13;;;13.60;86.10;;;;;;5030889;28;20084;-68
2022/04/23 07:40:45;;;;;;;10.48;9.45;;;13.70;87.30;;;;;;5030590;28;20084;-69
2022/04/23 07:43:13;;;;;;;11.85;10.50;;;13.60;82.90;;;;;;5030181;28;20049;-69
2022/04/23 07:45:40;;;;;;;9.95;9.05;;;13.80;84.60;;;;;;5031940;28;20140;-68
2022/04/23 07:48:09;;;;;;;10.10;8.90;;;14.00;81.30;;;;;;5030410;28;20064;-70
2022/04/23 07:50:37;;;;;;;12.20;9.50;;;14.30;78.90;;;;;;5031172;28;20089;-70
2022/04/23 07:53:11;;;;;;;12.35;9.48;;;14.60;80.00;;;;;;5029661;28;20049;-69
2022/04/23 07:55:38;;;;;;;12.57;11.27;;;15.00;78.40;;;;;;5014056;28;20051;-67
2022/04/23 07:58:09;;;;;;;11.98;9.02;;;14.90;73.10;;;;;;5030882;28;20045;-70
2022/04/23 08:00:36;;;;;;;14.43;9.10;;;14.90;70.70;;;;;;5028155;28;20053;-69
2022/04/23 08:03:03;;;;;;;8.45;7.57;;;14.80;69.00;;;;;;5029460;28;20053;-68
2022/04/23 08:05:29;;;;;;;15.20;8.45;;;15.20;69.50;;;;;;5031821;28;20060;-69
2022/04/23 08:07:55;;;;;;;12.77;7.88;;;15.20;67.00;;;;;;5031915;28;20041;-70
2022/04/23 08:10:21;;;;;;;10.48;7.30;;;15.50;67.80;;;;;;5031471;28;20097;-70
2022/04/23 08:12:47;;;;;;;10.32;7.60;;;15.80;66.60;;;;;;5029964;28;20041;-69
2022/04/23 08:15:13;;;;;;;13.95;7.63;;;15.90;63.90;;;;;;5033274;28;20041;-70
2022/04/23 08:17:39;;;;;;;11.15;7.30;;;15.80;63.20;;;;;;5030747;28;20072;-70
2022/04/23 08:20:06;;;;;;;9.75;7.03;;;16.00;64.70;;;;;;5031947;28;20432;-71
2022/04/23 08:22:32;;;;;;;11.05;7.38;;;16.20;63.00;;;;;;5029592;28;20057;-69
2022/04/23 08:24:58;;;;;;;10.35;7.45;;;16.20;63.20;;;;;;5031872;28;20045;-69
2022/04/23 08:27:23;;;;;;;11.35;6.65;;;16.10;62.80;;;;;;5031876;28;20132;-71
2022/04/23 08:32:35;;;;;;;13.07;7.10;;;16.20;61.00;;;;;;5029952;28;20485;-71
2022/04/23 08:35:01;;;;;;;8.00;7.20;;;16.20;60.50;;;;;;5014647;28;20049;-70
2022/04/23 08:37:27;;;;;;;8.65;7.20;;;16.30;60.30;;;;;;5005111;28;20057;-70
2022/04/23 08:39:53;;;;;;;9.68;7.63;;;16.30;60.60;;;;;;5030954;28;20053;-70
2022/04/23 08:42:19;;;;;;;10.82;7.22;;;16.20;60.10;;;;;;5030413;28;20029;-70
2022/04/23 08:44:47;;;;;;;12.65;7.50;;;16.60;61.30;;;;;;5031109;28;20434;-69
2022/04/23 08:47:16;;;;;;;8.13;6.95;;;16.90;59.80;;;;;;5029108;28;20057;-71
2022/04/23 08:49:43;;;;;;;8.23;7.28;;;17.10;58.80;;;;;;5030224;28;20042;-70
2022/04/23 08:52:16;;;;;;;9.85;7.55;;;17.10;58.40;;;;;;5029686;28;20037;-69
2022/04/23 08:54:43;;;;;;;11.68;6.82;;;17.30;58.10;;;;;;5028985;28;20053;-70
2022/04/23 08:57:09;;;;;;;7.78;6.88;;;17.40;58.50;;;;;;5031227;28;20520;-69
2022/04/23 08:59:35;;;;;;;10.75;7.85;;;17.50;56.90;;;;;;5029841;28;20041;-70
2022/04/23 09:02:01;;;;;;;13.55;8.20;;;17.30;56.00;;;;;;5012881;28;20127;-70
2022/04/23 09:04:28;;;;;;;10.38;7.50;;;16.90;57.10;;;;;;5028927;28;20081;-70
2022/04/23 09:06:54;;;;;;;9.93;7.40;;;16.80;57.20;;;;;;5013945;28;20136;-71
2022/04/23 09:09:21;;;;;;;9.50;7.57;;;17.10;58.30;;;;;;5013463;28;20041;-69
2022/04/23 09:11:52;;;;;;;9.27;7.28;;;17.50;57.90;;;;;;5014601;28;20049;-69
2022/04/23 09:14:28;;;;;;;9.77;7.60;;;17.80;57.50;;;;;;5029826;28;20132;-70
2022/04/23 09:25:36;;;;;;;11.65;7.35;;;17.10;55.50;;;;;;5029819;28;20072;-71
2022/04/23 09:28:21;;;;;;;8.98;8.07;;;17.20;57.10;;;;;;5027943;28;20049;-68
2022/04/23 09:30:49;;;;;;;10.73;7.47;;;17.30;56.40;;;;;;5027776;28;20045;-68
2022/04/23 09:33:14;;;;;;;9.57;7.80;;;17.30;56.90;;;;;;5028768;28;20144;-69
2022/04/23 09:35:57;;;;;;;9.73;7.78;;;17.50;56.50;;;;;;5028203;28;20449;-68
2022/04/23 09:38:24;;;;;;;10.70;7.85;;;17.60;55.90;;;;;;5028567;28;20053;-70
2022/04/23 09:40:55;;;;;;;8.65;7.85;;;17.60;55.90;;;;;;5027062;28;20096;-67
2022/04/23 09:43:42;;;;;;;8.60;7.57;;;17.60;55.10;;;;;;5026205;28;20053;-69
2022/04/23 09:46:09;;;;;;;10.68;7.88;;;17.30;55.30;;;;;;5024719;28;20136;-67
2022/04/23 09:48:39;;;;;;;10.07;8.40;;;17.40;55.50;;;;;;5028770;28;20331;-67
2022/04/23 09:51:19;;;;;;;8.68;7.80;;;17.50;55.80;;;;;;5027853;28;20072;-67
2022/04/23 09:53:47;;;;;;;9.80;7.78;;;17.30;56.60;;;;;;5024953;28;20061;-68
2022/04/23 09:56:14;;;;;;;19.30;8.48;;;17.30;57.00;;;;;;5026421;28;20068;-66
2022/04/23 09:58:40;;;;;;;11.10;8.52;;;17.60;56.00;;;;;;5025842;28;20098;-68
2022/04/23 10:01:08;;;;;;;10.38;8.30;;;17.60;55.60;;;;;;5026655;28;20045;-70
2022/04/23 10:03:34;;;;;;;9.23;7.63;;;17.50;55.40;;;;;;5019272;28;20255;-69
2022/04/23 10:06:02;;;;;;;11.68;7.78;;;17.80;56.60;;;;;;5024762;28;20124;-69
2022/04/23 10:08:30;;;;;;;10.02;8.32;;;17.90;55.30;;;;;;5025125;28;20037;-68
2022/04/23 10:11:20;;;;;;;11.82;7.72;;;17.80;54.60;;;;;;5027807;28;20045;-68
2022/04/23 10:13:52;;;;;;;8.82;8.07;;;17.90;55.10;;;;;;5037717;28;20156;-66
2022/04/23 10:16:19;;;;;;;9.20;7.95;;;17.90;54.60;;;;;;5025400;28;20401;-71
2022/04/23 10:18:45;;;;;;;9.35;8.35;;;17.60;54.90;;;;;;5023878;28;20460;-68
2022/04/23 10:21:24;;;;;;;10.07;7.70;;;17.50;54.70;;;;;;5028246;28;20510;-68
2022/04/23 10:24:05;;;;;;;9.30;8.35;;;17.30;54.60;;;;;;5024498;28;20111;-68
2022/04/23 10:26:46;;;;;;;9.73;7.30;;;17.30;54.50;;;;;;5027489;28;20144;-68
2022/04/23 10:29:14;;;;;;;15.82;7.93;;;17.50;55.80;;;;;;5028915;28;20346;-67
2022/04/23 10:31:41;;;;;;;8.85;8.05;;;17.70;55.30;;;;;;5028542;28;20041;-67
2022/04/23 10:34:33;;;;;;;8.68;7.88;;;17.90;54.30;;;;;;5028863;28;20092;-68
2022/04/23 10:37:22;;;;;;;10.63;8.45;;;17.90;53.40;;;;;;5028834;28;20045;-69
2022/04/23 10:39:51;;;;;;;8.57;7.60;;;17.80;53.00;;;;;;5027224;28;20047;-72
2022/04/23 10:42:17;;;;;;;9.35;7.53;;;17.70;55.20;;;;;;5026273;28;20052;-69
2022/04/23 10:44:45;;;;;;;8.23;7.45;;;17.80;55.10;;;;;;5025300;28;20385;-68
2022/04/23 10:47:35;;;;;;;12.48;7.82;;;18.00;53.70;;;;;;5025762;28;20050;-70
2022/04/23 10:50:17;;;;;;;8.40;6.50;;;18.40;52.80;;;;;;5026343;28;20069;-69
2022/04/23 10:52:44;;;;;;;9.25;7.75;;;18.60;52.10;;;;;;5027312;28;20110;-68
2022/04/23 10:55:14;;;;;;;10.25;8.00;;;18.60;52.90;;;;;;5027566;28;20061;-70
2022/04/23 10:58:06;;;;;;;7.90;7.20;;;18.70;51.80;;;;;;5023484;28;20132;-69
2022/04/23 11:00:43;;;;;;;9.05;8.13;;;18.40;51.00;;;;;;5027492;28;20492;-68
2022/04/23 11:03:10;;;;;;;8.40;7.60;;;18.20;52.10;;;;;;5027853;28;20505;-67
2022/04/23 11:14:52;;;;;;;14.00;7.35;;;18.60;50.60;;;;;;5027328;28;20107;-70
2022/04/23 11:17:31;;;;;;;8.27;7.47;;;18.70;50.30;;;;;;5026479;28;20060;-68
2022/04/23 11:19:57;;;;;;;8.05;7.32;;;18.80;50.30;;;;;;5028224;28;20053;-68
2022/04/23 11:22:23;;;;;;;7.47;6.88;;;18.90;49.30;;;;;;5030708;28;20037;-71
2022/04/23 11:24:51;;;;;;;7.97;6.93;;;19.00;49.60;;;;;;5029797;28;20454;-70
2022/04/23 11:27:27;;;;;;;10.40;7.45;;;19.10;48.80;;;;;;5031614;28;20493;-70
2022/04/23 11:29:54;;;;;;;8.02;7.00;;;19.00;47.50;;;;;;5028346;28;20041;-70
2022/04/23 11:32:30;;;;;;;8.63;7.13;;;19.00;49.20;;;;;;5030669;28;20073;-69
2022/04/23 11:34:57;;;;;;;9.00;7.03;;;19.40;48.90;;;;;;5032965;28;20037;-67
2022/04/23 11:37:29;;;;;;;7.25;6.55;;;19.30;48.20;;;;;;5030285;28;20083;-68
2022/04/23 11:40:09;;;;;;;7.78;6.63;;;19.60;48.50;;;;;;5031470;28;20107;-70
2022/04/23 11:42:41;;;;;;;8.05;7.22;;;19.70;47.80;;;;;;5031028;28;20114;-71
2022/04/23 11:45:10;;;;;;;7.88;7.10;;;19.60;46.90;;;;;;5027451;28;20057;-70
2022/04/23 11:47:36;;;;;;;8.48;6.43;;;19.30;48.20;;;;;;5029780;28;20585;-70
2022/04/23 11:50:14;;;;;;;8.00;6.35;;;19.30;48.20;;;;;;5030743;28;20049;-68
2022/04/23 11:52:41;;;;;;;8.63;7.07;;;18.90;46.80;;;;;;5030434;28;20041;-67
2022/04/23 11:55:18;;;;;;;7.38;6.68;;;18.80;47.90;;;;;;5030825;28;20053;-70
2022/04/23 11:57:55;;;;;;;7.38;6.32;;;18.90;48.00;;;;;;5029048;28;20502;-66
2022/04/23 12:00:21;;;;;;;6.40;5.85;;;19.20;46.70;;;;;;5029270;28;20121;-67
2022/04/23 12:02:47;;;;;;;5.65;5.15;;;19.20;46.20;;;;;;5030348;28;20052;-66
2022/04/23 12:05:22;;;;;;;7.88;5.70;;;19.50;45.30;;;;;;5032588;28;20041;-68
2022/04/23 12:07:47;;;;;;;6.10;5.50;;;19.40;45.00;;;;;;5029598;28;20162;-68
2022/04/23 12:10:13;;;;;;;7.07;6.40;;;19.50;46.10;;;;;;5030309;28;20045;-69
2022/04/23 12:12:40;;;;;;;8.00;6.60;;;19.70;46.50;;;;;;5029279;28;20045;-67
2022/04/23 12:15:10;;;;;;;6.30;5.70;;;19.50;46.00;;;;;;5030310;28;20053;-67
2022/04/23 12:17:52;;;;;;;6.05;5.47;;;19.70;45.80;;;;;;5030519;28;20033;-67
2022/04/23 12:20:19;;;;;;;6.82;5.13;;;19.90;44.80;;;;;;5030083;28;20052;-67
2022/04/23 12:23:05;;;;;;;7.55;5.13;;;20.00;46.00;;;;;;5031209;28;20478;-67
2022/04/23 12:25:36;;;;;;;5.30;4.80;;;20.40;42.80;;;;;;5029734;28;20373;-69
2022/04/23 12:40:44;;;;;;;6.38;5.78;;;20.60;44.00;;;;;;5028436;28;20033;-69
2022/04/23 12:42:20;;;;;;;6.78;4.53;;;20.50;42.00;;;;;;5031491;28;20046;-69
2022/04/23 12:44:46;;;;;;;8.25;4.82;;;20.80;42.90;;;;;;5029319;28;20110;-68
2022/04/23 12:47:14;;;;;;;6.68;4.97;;;20.80;42.20;;;;;;5030914;28;20088;-69
2022/04/23 12:49:47;;;;;;;5.60;4.60;;;20.70;41.80;;;;;;5012019;28;20052;-69
2022/04/23 12:52:20;;;;;;;5.25;4.32;;;20.50;41.30;;;;;;5031168;28;20453;-68
2022/04/23 12:55:15;;;;;;;6.10;4.30;;;20.30;41.20;;;;;;5029843;28;20052;-67
2022/04/23 12:57:44;;;;;;;5.65;5.07;;;20.20;41.30;;;;;;5028983;28;20049;-72
2022/04/23 13:00:14;;;;;;;5.57;5.07;;;20.00;41.80;;;;;;5027351;28;20129;-73
2022/04/23 13:02:43;;;;;;;7.93;4.65;;;20.00;42.90;;;;;;5029228;28;20042;-71
2022/04/23 13:05:11;;;;;;;6.07;4.60;;;20.20;43.00;;;;;;5012011;28;20136;-67
2022/04/23 13:10:22;;;;;;;7.22;4.30;;;20.20;41.20;;;;;;5030486;28;20060;-69
2022/04/23 13:12:48;;;;;;;9.27;4.90;;;19.90;40.80;;;;;;5029483;28;20701;-70
2022/04/23 13:15:15;;;;;;;6.10;4.88;;;19.90;41.20;;;;;;5028967;28;20409;-70
2022/04/23 13:17:42;;;;;;;4.68;4.22;;;19.90;40.70;;;;;;5028096;28;20092;-69
2022/04/23 13:20:12;;;;;;;6.03;4.10;;;19.80;40.10;;;;;;5028773;28;20045;-69
2022/04/23 13:22:41;;;;;;;5.57;4.18;;;19.80;40.60;;;;;;5023818;28;20108;-68
2022/04/23 13:25:07;;;;;;;5.78;4.40;;;19.70;40.00;;;;;;5027822;28;20085;-67
2022/04/23 13:27:33;;;;;;;4.55;4.15;;;19.50;41.70;;;;;;5028441;28;20065;-68
2022/04/23 13:29:59;;;;;;;5.85;5.20;;;19.40;42.40;;;;;;5027480;28;20053;-69